createdAt,value
2018-05-27T00:01:06.570Z,45.18
2018-05-27T00:03:35.404Z,44.84
2018-05-27T00:06:04.248Z,45.07
2018-05-27T00:08:33.066Z,44.89
2018-05-27T00:11:01.911Z,44.93
2018-05-27T00:13:30.777Z,44.61
2018-05-27T00:15:59.589Z,44.98
2018-05-27T00:18:28.436Z,44.84
2018-05-27T00:20:57.254Z,45.37
2018-05-27T00:23:26.070Z,45.19
2018-05-27T00:25:54.903Z,45.53
2018-05-27T00:28:23.737Z,45.36
2018-05-27T00:30:52.569Z,45.78
2018-05-27T00:33:21.393Z,45.88
2018-05-27T00:35:50.230Z,45.68
2018-05-27T00:38:19.071Z,45.77
2018-05-27T00:40:47.922Z,45.98
2018-05-27T00:43:16.787Z,46.19
2018-05-27T00:45:45.631Z,46.20
2018-05-27T00:48:14.487Z,46.28
2018-05-27T00:50:43.313Z,46.24
2018-05-27T00:53:14.039Z,46.16
2018-05-27T00:55:42.897Z,46.51
2018-05-27T00:58:11.732Z,46.34
2018-05-27T01:00:40.551Z,46.55
2018-05-27T01:03:09.381Z,46.79
2018-05-27T01:05:38.211Z,46.78
2018-05-27T01:08:07.051Z,46.69
2018-05-27T01:10:35.877Z,46.73
2018-05-27T01:13:04.712Z,46.64
2018-05-27T01:15:33.537Z,46.98
2018-05-27T01:18:02.405Z,46.76
2018-05-27T01:20:31.268Z,47.26
2018-05-27T01:23:00.087Z,47.60
2018-05-27T01:25:28.937Z,47.54
2018-05-27T01:27:57.841Z,47.56
2018-05-27T01:30:26.584Z,47.76
2018-05-27T01:32:55.450Z,47.67
2018-05-27T01:35:24.306Z,48.18
2018-05-27T01:37:53.169Z,48.04
2018-05-27T01:40:21.991Z,48.00
2018-05-27T01:42:50.802Z,48.33
2018-05-27T01:45:19.652Z,48.45
2018-05-27T01:47:48.585Z,48.26
2018-05-27T01:50:17.420Z,48.38
2018-05-27T01:52:46.292Z,47.98
2018-05-27T01:55:19.279Z,48.43
2018-05-27T01:57:48.086Z,48.72
2018-05-27T02:00:16.929Z,48.76
2018-05-27T02:02:45.764Z,48.91
2018-05-27T02:05:14.620Z,48.92
2018-05-27T02:07:43.455Z,49.13
2018-05-27T02:10:12.314Z,48.76
2018-05-27T02:12:41.136Z,48.89
2018-05-27T02:15:09.987Z,49.01
2018-05-27T02:17:38.806Z,49.29
2018-05-27T02:20:07.653Z,49.24
2018-05-27T02:22:36.482Z,49.23
2018-05-27T02:25:05.351Z,49.44
2018-05-27T02:27:34.186Z,49.86
2018-05-27T02:30:03.028Z,50.16
2018-05-27T02:32:31.879Z,50.04
2018-05-27T02:35:00.717Z,50.20
2018-05-27T02:37:29.559Z,50.06
2018-05-27T02:39:58.422Z,50.13
2018-05-27T02:42:27.242Z,49.98
2018-05-27T02:44:56.063Z,50.23
2018-05-27T02:47:24.912Z,50.53
2018-05-27T02:49:53.731Z,50.27
2018-05-27T02:52:22.612Z,50.49
2018-05-27T02:54:51.432Z,50.69
2018-05-27T02:57:20.241Z,50.57
2018-05-27T02:59:49.129Z,50.19
2018-05-27T03:02:17.967Z,50.36
2018-05-27T03:04:46.823Z,50.22
2018-05-27T03:07:15.871Z,50.65
2018-05-27T03:09:44.730Z,50.82
2018-05-27T03:12:13.555Z,50.85
2018-05-27T03:14:42.397Z,50.75
2018-05-27T03:17:11.239Z,50.95
2018-05-27T03:19:40.095Z,50.90
2018-05-27T03:22:08.941Z,50.79
2018-05-27T03:24:37.782Z,50.74
2018-05-27T03:27:06.614Z,50.92
2018-05-27T03:29:35.462Z,50.84
2018-05-27T03:32:04.294Z,51.09
2018-05-27T03:34:33.167Z,51.27
2018-05-27T03:37:01.982Z,51.24
2018-05-27T03:39:30.823Z,51.27
2018-05-27T03:41:59.640Z,51.45
2018-05-27T03:44:28.467Z,51.46
2018-05-27T03:46:57.307Z,51.52
2018-05-27T03:49:26.135Z,52.03
2018-05-27T03:51:55.001Z,51.80
2018-05-27T03:54:23.842Z,51.61
2018-05-27T03:56:52.691Z,51.79
2018-05-27T03:59:21.534Z,51.61
2018-05-27T04:01:50.352Z,52.10
2018-05-27T04:05:14.957Z,52.12
2018-05-27T04:08:40.024Z,52.18
2018-05-27T04:11:08.862Z,52.01
2018-05-27T04:13:37.721Z,52.26
2018-05-27T04:16:06.554Z,52.58
2018-05-27T04:18:36.039Z,52.42
2018-05-27T04:21:04.919Z,52.56
2018-05-27T04:23:33.731Z,52.86
2018-05-27T04:26:02.578Z,52.95
2018-05-27T04:28:31.522Z,52.83
2018-05-27T04:31:00.284Z,52.40
2018-05-27T04:33:29.122Z,52.92
2018-05-27T04:35:57.954Z,52.51
2018-05-27T04:38:26.798Z,52.47
2018-05-27T04:40:55.746Z,52.66
2018-05-27T04:43:24.588Z,52.58
2018-05-27T04:45:53.422Z,52.34
2018-05-27T04:48:22.299Z,52.24
2018-05-27T04:50:51.176Z,52.35
2018-05-27T04:53:20.009Z,52.38
2018-05-27T04:55:48.876Z,52.42
2018-05-27T04:58:17.683Z,52.58
2018-05-27T05:00:46.530Z,52.24
2018-05-27T05:03:15.367Z,52.22
2018-05-27T05:05:44.232Z,52.04
2018-05-27T05:08:13.072Z,52.20
2018-05-27T05:10:41.915Z,52.31
2018-05-27T05:13:10.749Z,52.35
2018-05-27T05:15:39.584Z,52.35
2018-05-27T05:18:08.427Z,52.06
2018-05-27T05:20:37.291Z,52.12
2018-05-27T05:23:06.154Z,51.98
2018-05-27T05:25:35.023Z,51.72
2018-05-27T05:28:03.864Z,51.74
2018-05-27T05:30:32.705Z,51.80
2018-05-27T05:33:01.537Z,51.75
2018-05-27T05:35:30.374Z,51.68
2018-05-27T05:37:59.243Z,51.59
2018-05-27T05:40:28.075Z,51.98
2018-05-27T05:42:56.889Z,52.06
2018-05-27T05:45:25.732Z,52.29
2018-05-27T05:47:54.572Z,52.19
2018-05-27T05:50:23.433Z,51.90
2018-05-27T05:52:52.252Z,51.95
2018-05-27T05:55:21.093Z,51.78
2018-05-27T05:57:49.931Z,52.57
2018-05-27T06:00:18.852Z,52.16
2018-05-27T06:02:47.840Z,52.25
2018-05-27T06:05:16.624Z,52.33
2018-05-27T06:07:45.484Z,51.34
2018-05-27T06:10:14.336Z,51.29
2018-05-27T06:12:43.148Z,51.58
2018-05-27T06:15:11.997Z,51.24
2018-05-27T06:17:40.815Z,51.33
2018-05-27T06:20:09.774Z,51.10
2018-05-27T06:22:38.612Z,50.43
2018-05-27T06:25:07.438Z,46.48
2018-05-27T06:27:36.275Z,45.75
2018-05-27T06:30:05.128Z,42.73
2018-05-27T06:32:33.982Z,41.83
2018-05-27T06:35:02.808Z,39.38
2018-05-27T06:37:31.640Z,37.23
2018-05-27T06:40:00.451Z,35.71
2018-05-27T06:42:29.306Z,33.45
2018-05-27T06:44:58.120Z,31.37
2018-05-27T06:47:26.954Z,31.02
2018-05-27T06:49:55.775Z,30.55
2018-05-27T06:52:24.631Z,29.62
2018-05-27T06:54:53.455Z,30.96
2018-05-27T06:57:22.278Z,32.38
2018-05-27T06:59:51.152Z,33.35
2018-05-27T07:02:20.004Z,34.09
2018-05-27T07:04:48.978Z,35.45
2018-05-27T07:07:17.652Z,36.47
2018-05-27T07:09:46.518Z,37.90
2018-05-27T07:12:15.345Z,38.70
2018-05-27T07:14:44.195Z,38.65
2018-05-27T07:17:13.080Z,37.90
2018-05-27T07:19:41.931Z,37.37
2018-05-27T07:22:10.787Z,37.00
2018-05-27T07:24:39.652Z,35.77
2018-05-27T07:27:08.520Z,32.68
2018-05-27T07:29:37.354Z,32.87
2018-05-27T07:32:06.196Z,33.47
2018-05-27T07:34:35.062Z,34.18
2018-05-27T07:37:03.879Z,33.93
2018-05-27T07:39:32.709Z,34.37
2018-05-27T07:42:01.573Z,34.94
2018-05-27T07:44:30.399Z,34.55
2018-05-27T07:46:59.260Z,34.17
2018-05-27T07:49:28.078Z,35.35
2018-05-27T07:51:56.913Z,34.20
2018-05-27T07:54:25.746Z,33.01
2018-05-27T07:56:54.571Z,31.59
2018-05-27T07:59:23.413Z,29.10
2018-05-27T08:01:52.232Z,26.32
2018-05-27T08:04:21.048Z,25.78
2018-05-27T08:06:49.887Z,23.92
2018-05-27T08:09:18.729Z,23.98
2018-05-27T08:11:47.566Z,24.44
2018-05-27T08:14:16.425Z,25.47
2018-05-27T08:16:45.336Z,25.05
2018-05-27T08:19:14.200Z,24.21
2018-05-27T08:21:43.127Z,23.31
2018-05-27T08:24:11.994Z,21.83
2018-05-27T08:26:40.821Z,21.02
2018-05-27T08:29:09.668Z,20.83
2018-05-27T08:31:38.511Z,20.65
2018-05-27T08:34:07.348Z,20.21
2018-05-27T08:36:36.188Z,19.67
2018-05-27T08:39:05.904Z,20.52
2018-05-27T08:41:34.815Z,19.20
2018-05-27T08:44:03.652Z,19.70
2018-05-27T08:46:32.568Z,19.37
2018-05-27T08:49:08.729Z,18.54
2018-05-27T08:51:37.860Z,19.10
2018-05-27T08:54:07.027Z,19.58
2018-05-27T08:56:40.889Z,18.79
2018-05-27T08:59:11.477Z,19.61
2018-05-27T09:01:40.992Z,19.94
2018-05-27T09:04:12.693Z,20.14
2018-05-27T09:06:45.325Z,19.61
2018-05-27T09:09:15.588Z,20.47
2018-05-27T09:11:47.167Z,19.55
2018-05-27T09:14:19.190Z,19.50
2018-05-27T09:16:50.735Z,18.26
2018-05-27T09:19:25.164Z,18.78
2018-05-27T09:21:54.429Z,20.08
2018-05-27T09:24:29.223Z,20.19
2018-05-27T09:26:58.263Z,20.52
2018-05-27T09:29:27.385Z,20.34
2018-05-27T09:31:56.570Z,20.19
2018-05-27T09:34:25.578Z,20.04
2018-05-27T09:36:54.791Z,19.01
2018-05-27T09:39:23.833Z,19.40
2018-05-27T09:41:56.118Z,18.43
2018-05-27T09:44:25.278Z,20.00
2018-05-27T09:46:55.919Z,19.92
2018-05-27T09:49:28.749Z,19.86
2018-05-27T09:51:58.434Z,19.46
2018-05-27T09:54:27.714Z,18.76
2018-05-27T09:56:58.822Z,19.14
2018-05-27T09:59:27.940Z,19.29
2018-05-27T10:01:57.134Z,19.26
2018-05-27T10:04:28.983Z,19.20
2018-05-27T10:07:01.003Z,19.34
2018-05-27T10:09:32.503Z,18.22
2018-05-27T10:12:01.667Z,18.89
2018-05-27T10:14:30.838Z,17.98
2018-05-27T10:17:00.279Z,17.21
2018-05-27T10:19:30.148Z,17.95
2018-05-27T10:21:59.341Z,17.30
2018-05-27T10:24:32.274Z,16.17
2018-05-27T10:27:03.890Z,17.86
2018-05-27T10:29:38.733Z,18.04
2018-05-27T10:32:18.720Z,17.75
2018-05-27T10:34:49.044Z,17.56
2018-05-27T10:37:18.338Z,16.16
2018-05-27T10:39:47.432Z,17.63
2018-05-27T10:42:18.678Z,18.54
2018-05-27T10:44:51.010Z,17.97
2018-05-27T10:47:20.421Z,18.64
2018-05-27T10:49:52.574Z,18.08
2018-05-27T10:52:21.686Z,18.49
2018-05-27T10:54:50.747Z,18.02
2018-05-27T10:57:20.265Z,17.06
2018-05-27T10:59:49.805Z,17.64
2018-05-27T11:02:18.894Z,17.43
2018-05-27T11:04:48.962Z,17.28
2018-05-27T11:07:18.080Z,18.13
2018-05-27T11:09:47.061Z,17.56
2018-05-27T11:12:21.367Z,17.75
2018-05-27T11:14:50.289Z,17.17
2018-05-27T11:17:19.451Z,18.41
2018-05-27T11:19:48.360Z,18.28
2018-05-27T11:22:17.663Z,18.42
2018-05-27T11:24:46.868Z,17.69
2018-05-27T11:27:17.241Z,19.72
2018-05-27T11:29:47.642Z,20.55
2018-05-27T11:32:20.690Z,21.19
2018-05-27T11:34:52.738Z,22.48
2018-05-27T11:37:21.991Z,23.37
2018-05-27T11:39:56.667Z,23.91
2018-05-27T11:42:25.918Z,24.60
2018-05-27T11:44:55.385Z,23.38
2018-05-27T11:47:24.695Z,23.66
2018-05-27T11:49:53.890Z,22.83
2018-05-27T11:52:23.127Z,22.31
2018-05-27T11:54:52.890Z,22.03
2018-05-27T11:57:22.371Z,22.90
2018-05-27T11:59:51.651Z,23.42
2018-05-27T12:02:21.816Z,23.84
2018-05-27T12:04:53.827Z,24.40
2018-05-27T12:07:22.991Z,25.28
2018-05-27T12:09:56.456Z,25.48
2018-05-27T12:12:25.863Z,25.65
2018-05-27T12:15:01.062Z,26.27
2018-05-27T12:17:32.567Z,27.20
2018-05-27T12:20:02.189Z,26.95
2018-05-27T12:22:31.348Z,26.95
2018-05-27T12:25:00.945Z,27.82
2018-05-27T12:27:30.044Z,27.61
2018-05-27T12:29:59.480Z,28.77
2018-05-27T12:32:28.603Z,29.29
2018-05-27T12:34:57.757Z,30.23
2018-05-27T12:37:27.175Z,30.34
2018-05-27T12:39:57.085Z,30.17
2018-05-27T12:42:26.284Z,31.06
2018-05-27T12:44:55.893Z,31.44
2018-05-27T12:47:25.072Z,31.27
2018-05-27T12:49:54.859Z,31.42
2018-05-27T12:52:24.571Z,31.71
2018-05-27T12:54:55.932Z,32.17
2018-05-27T12:57:27.617Z,31.64
2018-05-27T12:59:56.964Z,32.05
2018-05-27T13:02:27.130Z,32.28
2018-05-27T13:04:56.565Z,32.47
2018-05-27T13:07:25.660Z,32.98
2018-05-27T13:09:57.506Z,32.84
2018-05-27T13:12:26.599Z,32.46
2018-05-27T13:14:58.106Z,33.14
2018-05-27T13:17:28.400Z,34.47
2018-05-27T13:19:57.572Z,36.23
2018-05-27T13:22:27.289Z,38.21
2018-05-27T13:24:56.553Z,39.10
2018-05-27T13:27:27.379Z,38.14
2018-05-27T13:29:59.777Z,38.46
2018-05-27T13:32:29.019Z,38.32
2018-05-27T13:35:03.233Z,37.10
2018-05-27T13:37:32.714Z,37.41
2018-05-27T13:40:05.159Z,37.77
2018-05-27T13:42:37.487Z,37.58
2018-05-27T13:45:06.607Z,38.13
2018-05-27T13:47:38.388Z,38.27
2018-05-27T13:50:10.403Z,38.40
2018-05-27T13:52:39.593Z,37.59
2018-05-27T13:55:09.140Z,37.77
2018-05-27T13:57:38.237Z,37.19
2018-05-27T14:00:22.939Z,36.97
2018-05-27T14:02:49.661Z,37.48
2018-05-27T14:05:22.247Z,36.86
2018-05-27T14:07:51.503Z,37.07
2018-05-27T14:10:26.929Z,37.16
2018-05-27T14:12:55.255Z,36.40
2018-05-27T14:15:24.707Z,36.28
2018-05-27T14:18:04.463Z,36.25
2018-05-27T14:20:33.693Z,36.31
2018-05-27T14:23:03.991Z,36.25
2018-05-27T14:25:34.007Z,35.93
2018-05-27T14:28:02.978Z,35.91
2018-05-27T14:30:34.596Z,36.54
2018-05-27T14:33:03.748Z,36.89
2018-05-27T14:35:32.748Z,37.46
2018-05-27T14:38:04.481Z,37.58
2018-05-27T14:40:33.529Z,37.64
2018-05-27T14:43:02.949Z,38.23
2018-05-27T14:45:32.155Z,38.40
2018-05-27T14:48:01.955Z,38.78
2018-05-27T14:50:31.129Z,39.24
2018-05-27T14:52:59.942Z,39.45
2018-05-27T14:55:28.761Z,40.58
2018-05-27T14:57:57.705Z,41.12
2018-05-27T15:00:26.478Z,41.15
2018-05-27T15:02:55.324Z,42.10
2018-05-27T15:05:24.137Z,43.02
2018-05-27T15:07:52.990Z,44.97
2018-05-27T15:10:21.835Z,46.09
2018-05-27T15:12:50.680Z,46.86
2018-05-27T15:15:19.513Z,48.34
2018-05-27T15:17:48.368Z,49.57
2018-05-27T15:20:17.219Z,50.43
2018-05-27T15:22:46.139Z,50.34
2018-05-27T15:25:16.201Z,51.07
2018-05-27T15:27:45.037Z,51.03
2018-05-27T15:30:13.910Z,52.24
2018-05-27T15:32:42.744Z,52.98
2018-05-27T15:35:11.604Z,53.53
2018-05-27T15:37:40.450Z,52.76
2018-05-27T15:40:09.314Z,54.04
2018-05-27T15:42:38.176Z,55.01
2018-05-27T15:45:07.016Z,57.16
2018-05-27T15:47:38.884Z,58.31
2018-05-27T15:50:07.759Z,57.22
2018-05-27T15:52:36.633Z,58.66
2018-05-27T15:55:05.464Z,58.78
2018-05-27T15:57:34.336Z,58.76
2018-05-27T16:00:03.222Z,58.99
2018-05-27T16:02:32.104Z,59.25
2018-05-27T16:05:00.957Z,58.66
2018-05-27T16:07:29.791Z,58.11
2018-05-27T16:09:58.703Z,56.90
2018-05-27T16:12:27.604Z,57.16
2018-05-27T16:14:56.443Z,58.92
2018-05-27T16:17:25.314Z,58.31
2018-05-27T16:19:54.172Z,54.61
2018-05-27T16:22:23.004Z,55.95
2018-05-27T16:24:51.898Z,53.43
2018-05-27T16:27:20.761Z,49.63
2018-05-27T16:29:49.692Z,49.03
2018-05-27T16:32:18.715Z,49.14
2018-05-27T16:34:47.561Z,46.33
2018-05-27T16:37:16.375Z,48.65
2018-05-27T16:39:45.267Z,46.93
2018-05-27T16:42:14.093Z,45.46
2018-05-27T16:44:42.918Z,44.92
2018-05-27T16:47:11.755Z,45.90
2018-05-27T16:49:40.846Z,44.01
2018-05-27T16:52:09.773Z,46.60
2018-05-27T16:54:38.599Z,44.44
2018-05-27T16:57:07.485Z,44.33
2018-05-27T16:59:36.312Z,45.27
2018-05-27T17:02:05.141Z,47.02
2018-05-27T17:04:33.956Z,43.94
2018-05-27T17:07:02.793Z,42.72
2018-05-27T17:09:31.618Z,43.33
2018-05-27T17:12:00.446Z,44.79
2018-05-27T17:14:29.333Z,45.02
2018-05-27T17:16:58.183Z,45.09
2018-05-27T17:19:27.123Z,44.45
2018-05-27T17:21:55.959Z,45.02
2018-05-27T17:24:24.821Z,44.30
2018-05-27T17:26:53.667Z,44.11
2018-05-27T17:29:22.514Z,43.89
2018-05-27T17:31:51.350Z,44.56
2018-05-27T17:34:20.189Z,45.67
2018-05-27T17:36:49.040Z,46.36
2018-05-27T17:39:17.960Z,46.68
2018-05-27T17:41:46.760Z,47.72
2018-05-27T17:44:15.604Z,48.16
2018-05-27T17:46:44.474Z,48.17
2018-05-27T17:49:13.340Z,48.49
2018-05-27T17:51:42.180Z,49.75
2018-05-27T17:54:11.043Z,50.65
2018-05-27T17:56:39.891Z,50.62
2018-05-27T17:59:08.741Z,50.23
2018-05-27T18:01:37.587Z,50.75
2018-05-27T18:04:06.558Z,49.81
2018-05-27T18:06:35.370Z,49.96
2018-05-27T18:09:04.313Z,51.17
2018-05-27T18:11:33.177Z,51.91
2018-05-27T18:14:02.030Z,51.55
2018-05-27T18:16:30.881Z,51.33
2018-05-27T18:18:59.816Z,51.68
2018-05-27T18:21:28.655Z,51.54
2018-05-27T18:23:57.544Z,51.87
2018-05-27T18:26:26.367Z,51.68
2018-05-27T18:28:57.862Z,51.87
2018-05-27T18:31:26.672Z,52.08
2018-05-27T18:33:55.542Z,52.00
2018-05-27T18:36:24.375Z,51.66
2018-05-27T18:38:53.206Z,52.09
2018-05-27T18:41:22.052Z,52.39
2018-05-27T18:43:50.913Z,52.55
2018-05-27T18:46:19.731Z,53.03
2018-05-27T18:48:48.606Z,53.44
2018-05-27T18:51:17.473Z,53.47
2018-05-27T18:53:46.471Z,53.80
2018-05-27T18:56:15.325Z,54.13
2018-05-27T18:58:44.193Z,54.14
2018-05-27T19:01:13.043Z,53.91
2018-05-27T19:03:41.891Z,54.97
2018-05-27T19:06:10.750Z,55.27
2018-05-27T19:08:39.603Z,54.85
2018-05-27T19:11:08.466Z,54.40
2018-05-27T19:13:37.281Z,54.76
2018-05-27T19:16:06.142Z,54.86
2018-05-27T19:18:34.964Z,55.73
2018-05-27T19:21:03.786Z,55.25
2018-05-27T19:23:32.619Z,56.46
2018-05-27T19:26:01.504Z,56.22
2018-05-27T19:28:30.346Z,56.43
2018-05-27T19:30:59.233Z,56.33
2018-05-27T19:33:28.042Z,56.55
2018-05-27T19:35:56.890Z,57.04
2018-05-27T19:38:25.740Z,57.20
2018-05-27T19:40:54.599Z,56.68
2018-05-27T19:43:23.480Z,57.23
2018-05-27T19:45:52.259Z,56.28
2018-05-27T19:48:21.120Z,57.50
2018-05-27T19:50:49.963Z,58.15
2018-05-27T19:53:18.797Z,58.80
2018-05-27T19:55:47.632Z,59.63
2018-05-27T19:58:16.485Z,59.61
2018-05-27T20:00:45.340Z,59.47
2018-05-27T20:03:14.189Z,59.69
2018-05-27T20:05:42.999Z,60.28
2018-05-27T20:08:11.845Z,59.52
2018-05-27T20:10:40.711Z,60.78
2018-05-27T20:13:09.592Z,60.84
2018-05-27T20:15:38.420Z,61.47
2018-05-27T20:18:07.270Z,61.50
2018-05-27T20:20:36.125Z,62.03
2018-05-27T20:23:04.974Z,62.29
2018-05-27T20:25:33.808Z,61.52
2018-05-27T20:28:02.693Z,62.62
2018-05-27T20:30:31.541Z,62.59
2018-05-27T20:33:00.399Z,62.20
2018-05-27T20:35:29.233Z,61.88
2018-05-27T20:37:58.255Z,61.92
2018-05-27T20:40:27.085Z,61.87
2018-05-27T20:42:55.965Z,61.67
2018-05-27T20:45:24.794Z,61.76
2018-05-27T20:47:53.648Z,61.72
2018-05-27T20:50:22.451Z,61.78
2018-05-27T20:52:51.304Z,61.40
2018-05-27T20:55:20.159Z,62.07
2018-05-27T20:57:48.979Z,61.98
2018-05-27T21:00:17.814Z,61.69
2018-05-27T21:02:46.686Z,61.65
2018-05-27T21:05:15.550Z,61.89
2018-05-27T21:07:44.436Z,62.27
2018-05-27T21:10:13.244Z,61.95
2018-05-27T21:12:42.106Z,60.99
2018-05-27T21:15:10.975Z,61.77
2018-05-27T21:17:39.836Z,61.33
2018-05-27T21:20:08.691Z,62.17
2018-05-27T21:22:37.567Z,61.44
2018-05-27T21:25:06.412Z,61.21
2018-05-27T21:27:35.286Z,61.06
2018-05-27T21:30:04.160Z,61.24
2018-05-27T21:32:33.012Z,61.36
2018-05-27T21:35:01.859Z,60.91
2018-05-27T21:37:30.717Z,60.84
2018-05-27T21:39:59.520Z,60.75
2018-05-27T21:42:31.203Z,60.83
2018-05-27T21:45:00.168Z,59.00
2018-05-27T21:47:29.087Z,60.14
2018-05-27T21:49:57.941Z,58.97
2018-05-27T21:52:26.785Z,59.03
2018-05-27T21:54:55.641Z,59.36
2018-05-27T21:57:24.510Z,59.48
2018-05-27T21:59:53.353Z,59.84
2018-05-27T22:02:22.209Z,59.75
2018-05-27T22:04:51.093Z,60.11
2018-05-27T22:07:19.942Z,60.00
2018-05-27T22:09:48.787Z,59.71
2018-05-27T22:12:17.582Z,59.92
2018-05-27T22:14:46.421Z,59.95
2018-05-27T22:17:15.245Z,59.84
2018-05-27T22:19:44.117Z,60.32
2018-05-27T22:22:12.933Z,60.36
2018-05-27T22:24:41.792Z,60.44
2018-05-27T22:27:10.606Z,60.57
2018-05-27T22:29:39.490Z,60.56
2018-05-27T22:32:08.331Z,60.96
2018-05-27T22:34:37.172Z,60.82
2018-05-27T22:37:06.038Z,60.83
2018-05-27T22:39:34.852Z,61.53
2018-05-27T22:42:03.743Z,61.50
2018-05-27T22:44:32.576Z,61.72
2018-05-27T22:47:01.425Z,61.90
2018-05-27T22:49:30.269Z,60.59
2018-05-27T22:51:59.128Z,61.30
2018-05-27T22:54:27.978Z,61.39
2018-05-27T22:56:56.812Z,61.34
2018-05-27T22:59:25.641Z,61.70
2018-05-27T23:01:54.483Z,61.78
2018-05-27T23:04:23.317Z,61.95
2018-05-27T23:06:52.154Z,61.85
2018-05-27T23:09:21.018Z,61.86
2018-05-27T23:11:49.859Z,61.95
2018-05-27T23:14:18.702Z,61.73
2018-05-27T23:16:47.585Z,62.08
2018-05-27T23:19:16.434Z,62.01
2018-05-27T23:21:45.299Z,62.08
2018-05-27T23:24:14.155Z,62.00
2018-05-27T23:26:43.005Z,62.78
2018-05-27T23:29:11.858Z,62.54
2018-05-27T23:31:40.713Z,62.95
2018-05-27T23:34:09.549Z,62.70
2018-05-27T23:36:38.496Z,62.93
2018-05-27T23:39:07.330Z,62.62
2018-05-27T23:41:36.178Z,62.61
2018-05-27T23:44:05.036Z,62.36
2018-05-27T23:46:33.884Z,62.54
2018-05-27T23:49:02.778Z,62.78
2018-05-27T23:51:31.623Z,62.95
2018-05-27T23:54:00.454Z,62.95
2018-05-27T23:56:29.333Z,62.14
2018-05-27T23:58:58.179Z,63.14
